createdAt,value
2018-12-29T00:00:35.610Z,2.70
2018-12-29T00:03:04.466Z,2.70
2018-12-29T00:05:33.164Z,2.70
2018-12-29T00:08:01.926Z,2.70
2018-12-29T00:10:30.628Z,2.69
2018-12-29T00:12:59.050Z,2.70
2018-12-29T00:15:27.738Z,2.69
2018-12-29T00:17:56.429Z,2.69
2018-12-29T00:20:24.846Z,2.68
2018-12-29T00:22:53.326Z,2.67
2018-12-29T00:25:22.050Z,2.66
2018-12-29T00:27:50.451Z,2.66
2018-12-29T00:30:19.144Z,2.66
2018-12-29T00:32:47.845Z,2.66
2018-12-29T00:35:16.563Z,2.66
2018-12-29T00:37:45.262Z,2.65
2018-12-29T00:40:13.725Z,2.64
2018-12-29T00:42:42.478Z,2.63
2018-12-29T00:45:11.151Z,2.62
2018-12-29T00:47:40.142Z,2.62
2018-12-29T00:50:08.833Z,2.64
2018-12-29T00:52:37.247Z,2.64
2018-12-29T00:55:05.945Z,2.66
2018-12-29T00:57:34.802Z,2.66
2018-12-29T01:00:03.763Z,2.67
2018-12-29T01:02:32.229Z,2.67
2018-12-29T01:05:00.701Z,2.66
2018-12-29T01:07:29.489Z,2.67
2018-12-29T01:09:57.884Z,2.66
2018-12-29T01:12:26.301Z,2.68
2018-12-29T01:14:55.034Z,2.69
2018-12-29T01:17:23.437Z,2.69
2018-12-29T01:19:52.147Z,2.69
2018-12-29T01:22:20.561Z,2.69
2018-12-29T01:24:49.264Z,2.71
2018-12-29T01:27:18.070Z,2.73
2018-12-29T01:29:46.769Z,2.75
2018-12-29T01:32:15.628Z,2.75
2018-12-29T01:34:44.329Z,2.75
2018-12-29T01:37:13.012Z,2.74
2018-12-29T01:39:41.743Z,2.75
2018-12-29T01:42:10.427Z,2.74
2018-12-29T01:44:39.116Z,2.75
2018-12-29T01:47:07.831Z,2.76
2018-12-29T01:49:36.524Z,2.75
2018-12-29T01:52:05.276Z,2.74
2018-12-29T01:54:33.980Z,2.74
2018-12-29T01:57:02.391Z,2.75
2018-12-29T01:59:31.085Z,2.77
2018-12-29T02:01:59.589Z,2.77
2018-12-29T02:04:28.042Z,2.78
2018-12-29T02:07:00.268Z,2.79
2018-12-29T02:09:28.690Z,2.80
2018-12-29T02:11:57.108Z,2.81
2018-12-29T02:14:25.831Z,2.81
2018-12-29T02:16:54.543Z,2.82
2018-12-29T02:19:23.027Z,2.81
2018-12-29T02:21:51.780Z,2.81
2018-12-29T02:24:21.178Z,2.82
2018-12-29T02:26:49.931Z,2.81
2018-12-29T02:29:18.504Z,2.82
2018-12-29T02:31:47.214Z,2.82
2018-12-29T02:34:15.741Z,2.82
2018-12-29T02:36:44.481Z,2.82
2018-12-29T02:39:13.290Z,2.82
2018-12-29T02:41:41.739Z,2.79
2018-12-29T02:44:10.184Z,2.80
2018-12-29T02:46:38.869Z,2.79
2018-12-29T02:49:07.293Z,2.80
2018-12-29T02:51:35.792Z,2.79
2018-12-29T02:54:04.428Z,2.79
2018-12-29T02:56:32.826Z,2.81
2018-12-29T02:59:01.507Z,2.82
2018-12-29T03:01:30.431Z,2.82
2018-12-29T03:03:59.129Z,2.82
2018-12-29T03:06:27.818Z,2.82
2018-12-29T03:08:56.500Z,2.82
2018-12-29T03:11:25.186Z,2.82
2018-12-29T03:13:53.901Z,2.83
2018-12-29T03:16:22.568Z,2.82
2018-12-29T03:18:51.278Z,2.82
2018-12-29T03:21:20.024Z,2.83
2018-12-29T03:23:48.714Z,2.84
2018-12-29T03:26:17.141Z,2.84
2018-12-29T03:28:45.643Z,2.86
2018-12-29T03:31:14.324Z,2.84
2018-12-29T03:33:42.720Z,2.86
2018-12-29T03:36:11.126Z,2.86
2018-12-29T03:38:39.867Z,2.87
2018-12-29T03:41:08.636Z,2.88
2018-12-29T03:43:37.344Z,2.87
2018-12-29T03:46:06.015Z,2.87
2018-12-29T03:48:34.457Z,2.90
2018-12-29T03:51:03.194Z,2.90
2018-12-29T03:53:31.765Z,2.93
2018-12-29T03:56:00.458Z,2.93
2018-12-29T03:58:29.147Z,2.90
2018-12-29T04:00:57.827Z,2.89
2018-12-29T04:03:26.504Z,2.89
2018-12-29T04:05:54.951Z,2.88
2018-12-29T04:08:23.650Z,2.88
2018-12-29T04:10:52.362Z,2.88
2018-12-29T04:13:20.790Z,2.87
2018-12-29T04:15:57.687Z,2.86
2018-12-29T04:18:19.895Z,2.85
2018-12-29T04:20:48.604Z,2.85
2018-12-29T04:23:17.298Z,2.83
2018-12-29T04:25:46.007Z,2.84
2018-12-29T04:28:14.722Z,2.84
2018-12-29T04:30:43.485Z,2.84
2018-12-29T04:33:12.162Z,2.83
2018-12-29T04:35:40.577Z,2.82
2018-12-29T04:38:10.629Z,2.78
2018-12-29T04:40:39.322Z,2.79
2018-12-29T04:43:07.747Z,2.81
2018-12-29T04:45:36.454Z,2.81
2018-12-29T04:48:04.866Z,2.79
2018-12-29T04:50:33.323Z,2.78
2018-12-29T04:53:01.990Z,2.78
2018-12-29T04:55:30.715Z,2.78
2018-12-29T04:57:59.635Z,2.78
2018-12-29T05:00:28.314Z,2.77
2018-12-29T05:02:57.061Z,2.77
2018-12-29T05:05:25.720Z,2.77
2018-12-29T05:07:54.418Z,2.77
2018-12-29T05:10:23.161Z,2.77
2018-12-29T05:12:51.843Z,2.75
2018-12-29T05:15:20.537Z,2.75
2018-12-29T05:17:49.225Z,2.74
2018-12-29T05:20:17.960Z,2.74
2018-12-29T05:22:46.440Z,2.75
2018-12-29T05:25:15.166Z,2.75
2018-12-29T05:27:43.597Z,2.76
2018-12-29T05:30:12.271Z,2.78
2018-12-29T05:32:40.987Z,2.78
2018-12-29T05:35:09.726Z,2.78
2018-12-29T05:37:38.173Z,2.76
2018-12-29T05:40:08.044Z,2.73
2018-12-29T05:42:36.505Z,2.76
2018-12-29T05:45:05.757Z,2.76
2018-12-29T05:47:34.472Z,2.75
2018-12-29T05:50:03.228Z,2.77
2018-12-29T05:52:31.906Z,2.77
2018-12-29T05:55:00.603Z,2.76
2018-12-29T05:57:29.287Z,2.78
2018-12-29T05:59:58.085Z,2.78
2018-12-29T06:02:26.510Z,2.77
2018-12-29T06:04:55.208Z,2.79
2018-12-29T06:07:23.878Z,2.79
2018-12-29T06:09:52.306Z,2.79
2018-12-29T06:12:20.750Z,2.79
2018-12-29T06:14:49.240Z,2.82
2018-12-29T06:17:17.712Z,2.82
2018-12-29T06:19:46.397Z,2.83
2018-12-29T06:22:15.096Z,2.83
2018-12-29T06:24:43.504Z,2.83
2018-12-29T06:27:11.940Z,2.82
2018-12-29T06:29:40.708Z,2.83
2018-12-29T06:32:09.415Z,2.83
2018-12-29T06:34:38.102Z,2.83
2018-12-29T06:37:06.793Z,2.82
2018-12-29T06:39:37.511Z,2.83
2018-12-29T06:42:05.917Z,2.84
2018-12-29T06:44:34.686Z,2.85
2018-12-29T06:47:03.357Z,2.86
2018-12-29T06:49:32.096Z,2.87
2018-12-29T06:52:00.790Z,2.86
2018-12-29T06:54:29.520Z,2.86
2018-12-29T06:56:58.176Z,2.87
2018-12-29T06:59:26.867Z,2.89
2018-12-29T07:01:55.573Z,2.90
2018-12-29T07:04:24.443Z,2.90
2018-12-29T07:06:53.137Z,2.90
2018-12-29T07:09:21.556Z,2.93
2018-12-29T07:11:50.049Z,2.92
2018-12-29T07:14:18.783Z,2.92
2018-12-29T07:16:47.481Z,2.92
2018-12-29T07:19:16.193Z,2.93
2018-12-29T07:21:44.890Z,2.95
2018-12-29T07:24:13.590Z,2.96
2018-12-29T07:26:42.316Z,2.95
2018-12-29T07:29:13.272Z,2.96
2018-12-29T07:31:42.001Z,2.95
2018-12-29T07:34:12.965Z,2.97
2018-12-29T07:36:41.643Z,2.99
2018-12-29T07:39:10.117Z,2.98
2018-12-29T07:41:38.701Z,2.99
2018-12-29T07:44:07.067Z,3.00
2018-12-29T07:46:35.775Z,3.01
2018-12-29T07:49:04.197Z,3.00
2018-12-29T07:51:32.664Z,3.00
2018-12-29T07:54:01.386Z,3.00
2018-12-29T07:56:30.188Z,3.02
2018-12-29T07:58:58.609Z,3.02
2018-12-29T08:01:27.281Z,3.03
2018-12-29T08:03:56.001Z,3.03
2018-12-29T08:06:24.698Z,3.03
2018-12-29T08:08:53.394Z,3.05
2018-12-29T08:11:22.080Z,3.07
2018-12-29T08:13:50.784Z,3.08
2018-12-29T08:16:19.206Z,3.11
2018-12-29T08:18:47.989Z,3.10
2018-12-29T08:21:16.751Z,3.10
2018-12-29T08:23:45.420Z,3.10
2018-12-29T08:26:14.135Z,3.10
2018-12-29T08:28:42.829Z,3.11
2018-12-29T08:31:11.628Z,3.11
2018-12-29T08:33:40.380Z,3.11
2018-12-29T08:36:09.084Z,3.13
2018-12-29T08:38:37.852Z,3.13
2018-12-29T08:41:06.546Z,3.14
2018-12-29T08:43:35.245Z,3.16
2018-12-29T08:46:04.006Z,3.15
2018-12-29T08:48:32.949Z,3.18
2018-12-29T08:51:01.696Z,3.18
2018-12-29T08:53:30.209Z,3.21
2018-12-29T08:55:58.873Z,3.21
2018-12-29T08:58:27.601Z,3.23
2018-12-29T09:00:56.285Z,3.24
2018-12-29T09:03:24.972Z,3.27
2018-12-29T09:05:53.669Z,3.29
2018-12-29T09:08:22.416Z,3.29
2018-12-29T09:10:51.081Z,3.30
2018-12-29T09:13:19.756Z,3.31
2018-12-29T09:15:48.256Z,3.32
2018-12-29T09:18:16.949Z,3.33
2018-12-29T09:20:46.699Z,3.36
2018-12-29T09:23:15.490Z,3.36
2018-12-29T09:25:43.917Z,3.39
2018-12-29T09:28:12.832Z,3.40
2018-12-29T09:30:41.267Z,3.40
2018-12-29T09:33:09.977Z,3.42
2018-12-29T09:35:39.293Z,3.46
2018-12-29T09:38:09.521Z,3.45
2018-12-29T09:40:38.299Z,3.48
2018-12-29T09:43:07.053Z,3.51
2018-12-29T09:45:35.563Z,3.52
2018-12-29T09:48:03.993Z,3.54
2018-12-29T09:50:32.697Z,3.56
2018-12-29T09:53:02.091Z,3.58
2018-12-29T09:55:30.773Z,3.60
2018-12-29T09:57:59.202Z,3.60
2018-12-29T10:00:27.652Z,3.62
2018-12-29T10:02:56.417Z,3.65
2018-12-29T10:05:25.198Z,3.65
2018-12-29T10:07:53.687Z,3.67
2018-12-29T10:10:22.375Z,3.68
2018-12-29T10:12:51.070Z,3.68
2018-12-29T10:15:19.508Z,3.69
2018-12-29T10:17:48.203Z,3.72
2018-12-29T10:20:16.686Z,3.72
2018-12-29T10:22:45.438Z,3.74
2018-12-29T10:25:14.162Z,3.76
2018-12-29T10:27:42.676Z,3.76
2018-12-29T10:30:11.388Z,3.79
2018-12-29T10:32:40.101Z,3.81
2018-12-29T10:35:08.818Z,3.82
2018-12-29T10:37:37.265Z,3.86
2018-12-29T10:40:06.405Z,3.86
2018-12-29T10:42:35.181Z,3.88
2018-12-29T10:45:03.743Z,3.89
2018-12-29T10:47:34.607Z,3.93
2018-12-29T10:50:02.875Z,3.96
2018-12-29T10:52:31.591Z,3.99
2018-12-29T10:55:00.409Z,4.00
2018-12-29T10:57:28.826Z,4.00
2018-12-29T10:59:57.607Z,4.02
2018-12-29T11:02:26.339Z,4.04
2018-12-29T11:04:55.067Z,4.04
2018-12-29T11:07:23.796Z,4.07
2018-12-29T11:09:53.124Z,4.09
2018-12-29T11:12:21.859Z,4.13
2018-12-29T11:14:50.548Z,4.15
2018-12-29T11:17:19.236Z,4.19
2018-12-29T11:19:48.016Z,4.22
2018-12-29T11:22:16.434Z,4.28
2018-12-29T11:24:45.445Z,4.31
2018-12-29T11:27:13.859Z,4.35
2018-12-29T11:29:42.550Z,4.39
2018-12-29T11:32:11.251Z,4.43
2018-12-29T11:34:39.948Z,4.46
2018-12-29T11:37:08.627Z,4.45
2018-12-29T11:39:37.388Z,4.47
2018-12-29T11:42:06.085Z,4.47
2018-12-29T11:44:34.747Z,4.46
2018-12-29T11:47:03.496Z,4.45
2018-12-29T11:49:32.408Z,4.44
2018-12-29T11:52:00.880Z,4.45
2018-12-29T11:54:29.382Z,4.45
2018-12-29T11:56:57.817Z,4.47
2018-12-29T11:59:26.513Z,4.50
2018-12-29T12:01:55.220Z,4.55
2018-12-29T12:04:23.955Z,4.52
2018-12-29T12:06:52.723Z,4.58
2018-12-29T12:09:21.382Z,4.64
2018-12-29T12:11:50.234Z,4.68
2018-12-29T12:14:18.949Z,4.72
2018-12-29T12:16:47.419Z,4.81
2018-12-29T12:19:16.111Z,4.94
2018-12-29T12:21:44.899Z,5.01
2018-12-29T12:24:13.615Z,5.08
2018-12-29T12:26:42.040Z,5.09
2018-12-29T12:29:10.775Z,5.16
2018-12-29T12:31:39.927Z,5.26
2018-12-29T12:34:08.666Z,5.32
2018-12-29T12:36:37.713Z,5.35
2018-12-29T12:39:07.309Z,5.43
2018-12-29T12:41:36.187Z,5.49
2018-12-29T12:44:04.951Z,5.54
2018-12-29T12:46:33.672Z,5.60
2018-12-29T12:49:02.515Z,5.60
2018-12-29T12:51:31.198Z,5.64
2018-12-29T12:53:59.951Z,5.67
2018-12-29T12:56:28.666Z,5.67
2018-12-29T12:58:57.084Z,5.73
2018-12-29T13:01:27.294Z,5.69
2018-12-29T13:03:56.001Z,5.74
2018-12-29T13:06:24.419Z,5.77
2018-12-29T13:08:53.347Z,5.76
2018-12-29T13:11:22.107Z,5.71
2018-12-29T13:13:50.809Z,5.78
2018-12-29T13:16:19.577Z,5.83
2018-12-29T13:18:48.263Z,5.83
2018-12-29T13:21:17.043Z,5.79
2018-12-29T13:23:45.470Z,5.76
2018-12-29T13:26:14.172Z,5.80
2018-12-29T13:28:42.651Z,5.81
2018-12-29T13:31:11.338Z,5.79
2018-12-29T13:33:40.068Z,5.80
2018-12-29T13:36:08.505Z,5.75
2018-12-29T13:38:37.203Z,5.81
2018-12-29T13:41:05.981Z,5.82
2018-12-29T13:43:34.757Z,5.81
2018-12-29T13:46:03.256Z,5.79
2018-12-29T13:48:31.960Z,5.79
2018-12-29T13:51:00.625Z,5.82
2018-12-29T13:53:29.319Z,5.83
2018-12-29T13:55:57.985Z,5.80
2018-12-29T13:58:26.760Z,5.85
2018-12-29T14:00:55.878Z,5.87
2018-12-29T14:03:24.582Z,5.81
2018-12-29T14:05:53.048Z,5.76
2018-12-29T14:08:21.529Z,5.68
2018-12-29T14:10:50.224Z,5.65
2018-12-29T14:13:19.082Z,5.67
2018-12-29T14:15:47.547Z,5.68
2018-12-29T14:18:16.216Z,5.65
2018-12-29T14:20:45.817Z,5.61
2018-12-29T14:23:14.495Z,5.60
2018-12-29T14:25:43.206Z,5.58
2018-12-29T14:28:11.625Z,5.59
2018-12-29T14:30:40.308Z,5.56
2018-12-29T14:33:08.831Z,5.56
2018-12-29T14:35:37.575Z,5.55
2018-12-29T14:38:06.363Z,5.51
2018-12-29T14:40:34.880Z,5.52
2018-12-29T14:43:03.338Z,5.57
2018-12-29T14:45:32.029Z,5.57
2018-12-29T14:48:00.862Z,5.56
2018-12-29T14:50:29.595Z,5.58
2018-12-29T14:52:57.998Z,5.59
2018-12-29T14:55:26.692Z,5.60
2018-12-29T14:57:55.149Z,5.62
2018-12-29T15:00:23.818Z,5.64
2018-12-29T15:02:52.526Z,5.65
2018-12-29T15:05:21.246Z,5.69
2018-12-29T15:07:49.942Z,5.67
2018-12-29T15:10:18.611Z,5.62
2018-12-29T15:12:47.429Z,5.58
2018-12-29T15:15:15.968Z,5.65
2018-12-29T15:17:44.689Z,5.61
2018-12-29T15:20:13.603Z,5.59
2018-12-29T15:22:42.338Z,5.57
2018-12-29T15:25:10.751Z,5.58
2018-12-29T15:27:39.812Z,5.60
2018-12-29T15:30:08.651Z,5.60
2018-12-29T15:32:37.335Z,5.60
2018-12-29T15:35:06.560Z,5.60
2018-12-29T15:37:34.949Z,5.65
2018-12-29T15:40:03.871Z,5.65
2018-12-29T15:42:32.646Z,5.67
2018-12-29T15:45:01.355Z,5.66
2018-12-29T15:47:31.040Z,5.65
2018-12-29T15:49:59.738Z,5.65
2018-12-29T15:52:28.440Z,5.64
2018-12-29T15:54:57.154Z,5.62
2018-12-29T15:57:25.975Z,5.62
2018-12-29T15:59:54.746Z,5.64
2018-12-29T16:02:23.454Z,5.64
2018-12-29T16:04:52.583Z,5.62
2018-12-29T16:07:21.309Z,5.61
2018-12-29T16:09:51.842Z,5.63
2018-12-29T16:12:20.618Z,5.61
2018-12-29T16:14:49.371Z,5.59
2018-12-29T16:17:18.825Z,5.59
2018-12-29T16:19:47.969Z,5.56
2018-12-29T16:22:16.379Z,5.54
2018-12-29T16:24:44.793Z,5.52
2018-12-29T16:27:13.521Z,5.51
2018-12-29T16:29:42.183Z,5.49
2018-12-29T16:32:12.307Z,5.48
2018-12-29T16:34:40.760Z,5.45
2018-12-29T16:37:09.535Z,5.46
2018-12-29T16:39:38.583Z,5.43
2018-12-29T16:42:07.271Z,5.44
2018-12-29T16:44:36.001Z,5.44
2018-12-29T16:47:04.754Z,5.44
2018-12-29T16:49:33.384Z,5.45
2018-12-29T16:52:01.857Z,5.44
2018-12-29T16:54:30.565Z,5.48
2018-12-29T16:56:59.250Z,5.46
2018-12-29T16:59:28.199Z,5.47
2018-12-29T17:01:56.894Z,5.48
2018-12-29T17:04:25.579Z,5.50
2018-12-29T17:06:54.305Z,5.53
2018-12-29T17:09:23.187Z,5.56
2018-12-29T17:11:52.480Z,5.57
2018-12-29T17:14:21.550Z,5.57
2018-12-29T17:16:50.251Z,5.58
2018-12-29T17:19:18.808Z,5.57
2018-12-29T17:21:47.586Z,5.59
2018-12-29T17:24:16.289Z,5.60
2018-12-29T17:26:45.023Z,5.60
2018-12-29T17:29:13.734Z,5.60
2018-12-29T17:31:42.435Z,5.63
2018-12-29T17:34:11.151Z,5.66
2018-12-29T17:36:42.007Z,5.67
2018-12-29T17:39:10.062Z,5.67
2018-12-29T17:41:38.756Z,5.70
2018-12-29T17:44:07.459Z,5.69
2018-12-29T17:46:36.236Z,5.69
2018-12-29T17:49:05.230Z,5.69
2018-12-29T17:51:33.918Z,5.71
2018-12-29T17:54:02.467Z,5.72
2018-12-29T17:56:31.558Z,5.72
2018-12-29T17:59:00.224Z,5.72
2018-12-29T18:01:28.939Z,5.70
2018-12-29T18:03:57.651Z,5.72
2018-12-29T18:06:26.363Z,5.70
2018-12-29T18:08:55.420Z,5.70
2018-12-29T18:11:24.146Z,5.75
2018-12-29T18:13:52.854Z,5.77
2018-12-29T18:16:22.016Z,5.77
2018-12-29T18:18:50.732Z,5.76
2018-12-29T18:21:19.443Z,5.77
2018-12-29T18:23:48.200Z,5.79
2018-12-29T18:26:17.060Z,5.81
2018-12-29T18:28:46.519Z,5.84
2018-12-29T18:31:15.257Z,5.82
2018-12-29T18:33:43.939Z,5.89
2018-12-29T18:36:12.677Z,5.89
2018-12-29T18:38:41.542Z,5.89
2018-12-29T18:41:09.906Z,5.88
2018-12-29T18:43:38.631Z,5.89
2018-12-29T18:46:07.364Z,5.92
2018-12-29T18:48:36.074Z,5.90
2018-12-29T18:51:04.832Z,5.93
2018-12-29T18:53:33.540Z,5.95
2018-12-29T18:56:02.825Z,5.93
2018-12-29T18:58:31.250Z,5.93
2018-12-29T19:00:59.988Z,5.94
2018-12-29T19:03:28.703Z,6.00
2018-12-29T19:05:57.909Z,6.08
2018-12-29T19:08:26.630Z,6.12
2018-12-29T19:10:55.048Z,6.18
2018-12-29T19:13:24.163Z,6.24
2018-12-29T19:15:53.282Z,6.28
2018-12-29T19:18:21.949Z,6.29
2018-12-29T19:20:51.651Z,6.34
2018-12-29T19:23:22.592Z,6.38
2018-12-29T19:25:52.259Z,6.43
2018-12-29T19:28:21.410Z,6.49
2018-12-29T19:30:50.459Z,6.50
2018-12-29T19:33:20.178Z,6.53
2018-12-29T19:35:49.273Z,6.58
2018-12-29T19:38:18.359Z,6.57
2018-12-29T19:40:47.592Z,6.59
2018-12-29T19:43:16.662Z,6.64
2018-12-29T19:45:45.369Z,6.69
2018-12-29T19:48:14.079Z,6.72
2018-12-29T19:50:42.841Z,6.68
2018-12-29T19:53:11.730Z,6.75
2018-12-29T19:55:40.457Z,6.82
2018-12-29T19:58:09.192Z,6.84
2018-12-29T20:00:37.605Z,6.92
2018-12-29T20:03:06.607Z,6.94
2018-12-29T20:05:35.556Z,6.92
2018-12-29T20:08:04.116Z,6.88
2018-12-29T20:10:32.814Z,6.91
2018-12-29T20:13:04.495Z,6.89
2018-12-29T20:15:33.298Z,6.93
2018-12-29T20:18:01.820Z,6.95
2018-12-29T20:20:31.262Z,6.94
2018-12-29T20:22:59.727Z,6.98
2018-12-29T20:25:30.528Z,7.02
2018-12-29T20:27:59.292Z,7.04
2018-12-29T20:30:28.773Z,7.07
2018-12-29T20:32:59.029Z,7.08
2018-12-29T20:35:28.123Z,7.16
2018-12-29T20:37:57.170Z,7.22
2018-12-29T20:40:25.966Z,7.26
2018-12-29T20:42:54.394Z,7.38
2018-12-29T20:45:22.847Z,7.45
2018-12-29T20:47:51.305Z,7.45
2018-12-29T20:50:20.013Z,7.41
2018-12-29T20:52:48.702Z,7.50
2018-12-29T20:55:17.385Z,7.59
2018-12-29T20:57:46.082Z,7.55
2018-12-29T21:00:14.668Z,7.57
2018-12-29T21:02:43.470Z,7.51
2018-12-29T21:05:12.770Z,7.52
2018-12-29T21:07:41.452Z,7.65
2018-12-29T21:10:10.299Z,7.69
2018-12-29T21:12:38.993Z,7.76
2018-12-29T21:15:07.721Z,7.75
2018-12-29T21:17:36.417Z,7.76
2018-12-29T21:20:06.047Z,7.75
2018-12-29T21:22:34.787Z,7.90
2018-12-29T21:25:03.575Z,7.90
2018-12-29T21:27:32.833Z,7.91
2018-12-29T21:30:01.521Z,7.89
2018-12-29T21:32:30.447Z,7.89
2018-12-29T21:34:59.193Z,7.91
2018-12-29T21:37:27.896Z,7.87
2018-12-29T21:39:56.604Z,7.87
2018-12-29T21:42:25.373Z,7.87
2018-12-29T21:44:54.084Z,7.90
2018-12-29T21:47:22.859Z,7.92
2018-12-29T21:49:51.606Z,7.90
2018-12-29T21:52:20.039Z,7.85
2018-12-29T21:54:48.507Z,7.84
2018-12-29T21:57:16.926Z,7.90
2018-12-29T21:59:46.171Z,7.84
2018-12-29T22:02:14.953Z,7.80
2018-12-29T22:04:43.424Z,7.77
2018-12-29T22:07:12.205Z,7.77
2018-12-29T22:09:42.148Z,7.77
2018-12-29T22:12:11.500Z,7.74
2018-12-29T22:14:39.960Z,7.74
2018-12-29T22:17:08.380Z,7.78
2018-12-29T22:19:37.222Z,7.79
2018-12-29T22:22:05.664Z,7.77
2018-12-29T22:24:34.093Z,7.77
2018-12-29T22:27:03.563Z,7.80
2018-12-29T22:29:32.251Z,7.73
2018-12-29T22:32:01.045Z,7.75
2018-12-29T22:34:29.790Z,7.74
2018-12-29T22:36:58.513Z,7.73
2018-12-29T22:39:27.564Z,7.70
2018-12-29T22:41:56.238Z,7.66
2018-12-29T22:44:25.083Z,7.63
2018-12-29T22:46:56.755Z,7.54
2018-12-29T22:49:25.517Z,7.53
2018-12-29T22:51:54.272Z,7.48
2018-12-29T22:54:22.713Z,7.48
2018-12-29T22:56:51.446Z,7.47
2018-12-29T22:59:20.171Z,7.47
2018-12-29T23:01:48.963Z,7.44
2018-12-29T23:04:17.423Z,7.51
2018-12-29T23:06:46.158Z,7.54
2018-12-29T23:09:15.248Z,7.51
2018-12-29T23:11:44.121Z,7.49
2018-12-29T23:14:12.803Z,7.42
2018-12-29T23:16:41.238Z,7.42
2018-12-29T23:19:09.661Z,7.46
2018-12-29T23:21:38.358Z,7.47
2018-12-29T23:24:07.197Z,7.41
2018-12-29T23:26:35.882Z,7.49
2018-12-29T23:29:04.634Z,7.47
2018-12-29T23:31:33.171Z,7.47
2018-12-29T23:34:01.934Z,7.41
2018-12-29T23:36:30.682Z,7.41
2018-12-29T23:38:59.382Z,7.45
2018-12-29T23:41:28.083Z,7.43
2018-12-29T23:43:56.769Z,7.42
2018-12-29T23:46:25.454Z,7.38
2018-12-29T23:48:54.149Z,7.35
2018-12-29T23:51:22.982Z,7.37
2018-12-29T23:53:51.385Z,7.41
2018-12-29T23:56:20.544Z,7.34
2018-12-29T23:58:49.258Z,7.32
